createdAt,value
2018-09-25T00:10:28.223Z,0.40
2018-09-25T00:25:37.203Z,0.40
2018-09-25T00:40:46.279Z,0.53
2018-09-25T00:55:55.330Z,0.77
2018-09-25T01:11:04.678Z,0.90
2018-09-25T01:26:13.749Z,0.57
2018-09-25T01:41:22.953Z,0.70
2018-09-25T01:56:32.254Z,0.80
2018-09-25T02:11:41.482Z,0.30
2018-09-25T02:26:50.763Z,1.20
2018-09-25T02:42:00.082Z,0.53
2018-09-25T02:57:09.179Z,0.80
2018-09-25T03:12:18.430Z,1.73
2018-09-25T03:27:27.650Z,0.87
2018-09-25T03:42:36.774Z,1.82
2018-09-25T03:57:45.884Z,0.87
2018-09-25T04:12:55.879Z,1.25
2018-09-25T04:28:05.078Z,0.77
2018-09-25T04:43:14.378Z,0.80
2018-09-25T04:58:24.298Z,1.03
2018-09-25T05:13:33.626Z,1.53
2018-09-25T05:28:42.798Z,1.07
2018-09-25T05:43:52.017Z,1.63
2018-09-25T05:59:01.355Z,1.67
2018-09-25T06:14:10.656Z,1.33
2018-09-25T06:29:19.969Z,2.08
2018-09-25T06:44:29.194Z,2.07
2018-09-25T06:59:38.377Z,1.67
2018-09-25T10:29:40.709Z,1.00
2018-09-25T10:44:50.112Z,0.70
2018-09-25T10:59:59.231Z,0.70
2018-09-25T11:15:08.553Z,0.90
2018-09-25T11:30:17.757Z,1.00
2018-09-25T11:45:27.714Z,0.78
2018-09-25T12:00:36.938Z,1.10
2018-09-25T12:15:46.331Z,1.12
2018-09-25T12:30:55.559Z,0.20
2018-09-25T12:46:05.032Z,0.50
2018-09-25T13:01:14.261Z,0.50
2018-09-25T13:16:23.435Z,0.68
2018-09-25T13:31:32.730Z,0.90
2018-09-25T13:46:42.010Z,0.57
2018-09-25T14:01:51.234Z,0.67
2018-09-25T14:17:00.484Z,0.40
2018-09-25T14:32:09.810Z,0.82
2018-09-25T14:47:19.207Z,0.80
2018-09-25T15:02:28.410Z,1.10
2018-09-25T15:17:37.759Z,1.10
2018-09-25T15:32:47.038Z,1.10
2018-09-25T15:47:56.189Z,1.00
2018-09-25T16:03:05.790Z,0.60
2018-09-25T16:18:15.070Z,0.90
2018-09-25T16:33:24.190Z,0.93
2018-09-25T16:48:33.442Z,0.90
2018-09-25T17:03:42.537Z,1.20
2018-09-25T17:18:51.790Z,1.75
2018-09-25T17:34:01.160Z,1.67
2018-09-25T17:49:10.489Z,1.57
2018-09-25T18:04:19.491Z,1.83
2018-09-25T18:19:28.966Z,2.40
2018-09-25T18:34:38.153Z,2.50
2018-09-25T18:49:47.442Z,2.57
2018-09-25T19:04:56.847Z,1.20
2018-09-25T19:20:06.094Z,1.37
2018-09-25T19:35:15.356Z,1.80
2018-09-25T19:50:24.713Z,1.13
2018-09-25T20:05:34.145Z,1.60
2018-09-25T20:20:43.321Z,1.90
2018-09-25T20:35:52.626Z,1.75
2018-09-25T20:51:01.965Z,1.40
2018-09-25T21:06:11.242Z,1.73
2018-09-25T21:21:20.735Z,4.13
2018-09-25T21:36:29.870Z,1.87
2018-09-25T21:51:39.110Z,1.43
2018-09-25T22:06:48.417Z,1.50
2018-09-25T22:21:57.597Z,1.80
2018-09-25T22:37:06.839Z,1.70
2018-09-25T22:52:16.018Z,2.17
2018-09-25T23:07:25.245Z,1.40
2018-09-25T23:22:34.569Z,1.40
2018-09-25T23:37:43.889Z,2.05
2018-09-25T23:52:51.221Z,1.83
